Somerset, Bermuda
Current Conditions -  °F | °C
As of 4:55 PM on Monday 26 Jan 2015 (Local Time) from TXKF Reporting Station
Light Rain Light Rain  
Wind Chill: 68°   Ceiling: 3600
Heat Index: 68°   Visibility: 5mi
Dew Point: 59°   Wind: 17mph
Humidity: 73%   Direction: 130°SE
Pressure: 29.8"   Gusts: NA
Location:  32.3°N, 64.87°W
Report Text: TXKF 261955Z 13015KT 8000 -RA SCT015 BKN036 OVC05020/15 Q1009
Loading
Personal Weather Stations






























Interactive Weather Map New forecast layout! Learn more

10-Day Weather Forecast

Advertisements
Track Severe Weather on mobile